Ana Sayfa
METAR-TAF:

METAR-TAF

Havaalanları :

Agri-Science Center

Chillicothe, Missouri, Amerika Birleşik Devletleri

Enlem: 39-49N, Boylam: 093-35W, yükseklik: 234 m

Güncel hava durumu gözlemi

Rapor saat 01:51 UTC de 54 dakika önce yapıldı.
Rüzgar güneydan 3 kt
Sıcaklık 27°C
Nem 70%
Basınç 1013 hPa

METAR: KCDJ 240151Z AUTO 18003KT 27/21 A2990 RMK AO1 SLP109 T02720211

Saat: 21:45 (02:45 UTC)


TAF: eksik

4.000'den fazla havaalanı için hava durumu gözlemleri ve tahminleri (METAR ve TAF raporları).

Kullanılabilir istasyonlar harita üzerinde sarı ve kırmızı noktalarla gösterilir.

İstasyonun adını görmek için fareyi noktanın üzerinde gezdirin.

Sonrasında hava gözlem ve tahminlerini görmek için tıklayın.

Haritayı değiştirmek için: yaklaştırmak için siyah artı işaretli yeşil düğmeye ve uzaklaştırmak için de eksi işaretli düğmeye hızla tıklayın; bitişik haritalar için yeşil okları kullanın.


METAR-TAF: